sensor_id;sensor_type;location;lat;lon;timestamp;noise_LAeq;noise_LA_min;noise_LA_max;noise_LA01;noise_LA95
38366;Laerm;943;51.568;6.998;2023-12-29T00:01:32;56.20;37.30;79.33;;
38366;Laerm;943;51.568;6.998;2023-12-29T00:04:02;46.69;39.04;68.52;;
38366;Laerm;943;51.568;6.998;2023-12-29T00:06:32;52.84;38.97;71.74;;
38366;Laerm;943;51.568;6.998;2023-12-29T00:09:07;42.98;38.79;56.86;;
38366;Laerm;943;51.568;6.998;2023-12-29T00:11:36;54.39;39.47;72.41;;
38366;Laerm;943;51.568;6.998;2023-12-29T00:14:06;48.34;38.82;66.22;;
38366;Laerm;943;51.568;6.998;2023-12-29T00:16:36;46.29;37.51;72.44;;
38366;Laerm;943;51.568;6.998;2023-12-29T00:19:07;56.22;38.45;75.83;;
38366;Laerm;943;51.568;6.998;2023-12-29T00:21:37;47.02;38.63;67.98;;
38366;Laerm;943;51.568;6.998;2023-12-29T00:24:07;52.47;39.05;74.27;;
38366;Laerm;943;51.568;6.998;2023-12-29T00:26:41;45.62;38.56;64.62;;
38366;Laerm;943;51.568;6.998;2023-12-29T00:29:11;46.22;37.26;65.17;;
38366;Laerm;943;51.568;6.998;2023-12-29T00:31:41;49.57;38.03;71.33;;
38366;Laerm;943;51.568;6.998;2023-12-29T00:34:11;52.09;37.20;71.69;;
38366;Laerm;943;51.568;6.998;2023-12-29T00:36:41;49.12;38.39;70.16;;
38366;Laerm;943;51.568;6.998;2023-12-29T00:39:12;75.43;39.13;98.44;;
38366;Laerm;943;51.568;6.998;2023-12-29T00:41:42;59.81;38.55;82.46;;
38366;Laerm;943;51.568;6.998;2023-12-29T00:44:12;53.82;38.31;73.46;;
38366;Laerm;943;51.568;6.998;2023-12-29T00:46:42;57.57;39.59;77.49;;
38366;Laerm;943;51.568;6.998;2023-12-29T00:49:12;51.15;38.79;72.97;;
38366;Laerm;943;51.568;6.998;2023-12-29T00:51:44;45.96;36.99;67.17;;
38366;Laerm;943;51.568;6.998;2023-12-29T00:54:14;54.87;36.14;78.57;;
38366;Laerm;943;51.568;6.998;2023-12-29T00:56:52;52.34;37.67;78.55;;
38366;Laerm;943;51.568;6.998;2023-12-29T00:59:22;48.42;37.07;70.03;;
38366;Laerm;943;51.568;6.998;2023-12-29T01:01:51;49.30;36.06;70.04;;
38366;Laerm;943;51.568;6.998;2023-12-29T01:04:21;47.79;36.45;69.00;;
38366;Laerm;943;51.568;6.998;2023-12-29T01:06:51;41.49;36.53;60.18;;
38366;Laerm;943;51.568;6.998;2023-12-29T01:09:21;47.11;37.72;66.25;;
38366;Laerm;943;51.568;6.998;2023-12-29T01:11:52;41.47;36.58;59.58;;
38366;Laerm;943;51.568;6.998;2023-12-29T01:14:21;48.06;36.48;76.24;;
38366;Laerm;943;51.568;6.998;2023-12-29T01:16:51;45.08;37.78;66.33;;
38366;Laerm;943;51.568;6.998;2023-12-29T01:19:21;44.05;37.46;62.28;;
38366;Laerm;943;51.568;6.998;2023-12-29T01:21:51;47.75;37.48;64.90;;
38366;Laerm;943;51.568;6.998;2023-12-29T01:24:20;47.95;37.01;68.74;;
38366;Laerm;943;51.568;6.998;2023-12-29T01:27:00;44.60;36.50;68.15;;
38366;Laerm;943;51.568;6.998;2023-12-29T01:29:30;47.68;38.41;72.98;;
38366;Laerm;943;51.568;6.998;2023-12-29T01:32:00;54.77;38.96;78.21;;
38366;Laerm;943;51.568;6.998;2023-12-29T01:34:34;49.46;37.98;67.87;;
38366;Laerm;943;51.568;6.998;2023-12-29T01:37:04;58.25;38.05;76.77;;
38366;Laerm;943;51.568;6.998;2023-12-29T01:39:36;56.40;36.86;79.04;;
38366;Laerm;943;51.568;6.998;2023-12-29T01:42:08;43.09;37.80;60.24;;
38366;Laerm;943;51.568;6.998;2023-12-29T01:44:39;50.96;37.55;72.75;;
38366;Laerm;943;51.568;6.998;2023-12-29T01:47:20;48.41;38.75;69.29;;
38366;Laerm;943;51.568;6.998;2023-12-29T01:49:55;51.12;37.69;75.41;;
38366;Laerm;943;51.568;6.998;2023-12-29T01:52:29;46.46;38.64;61.32;;
38366;Laerm;943;51.568;6.998;2023-12-29T01:55:00;51.60;39.95;75.18;;
38366;Laerm;943;51.568;6.998;2023-12-29T01:57:36;57.23;40.21;77.92;;
38366;Laerm;943;51.568;6.998;2023-12-29T02:00:11;47.25;40.44;68.52;;
38366;Laerm;943;51.568;6.998;2023-12-29T02:02:46;48.32;41.18;66.47;;
38366;Laerm;943;51.568;6.998;2023-12-29T02:05:24;51.74;44.76;69.20;;
38366;Laerm;943;51.568;6.998;2023-12-29T02:07:56;48.50;45.37;61.73;;
38366;Laerm;943;51.568;6.998;2023-12-29T02:10:29;48.70;43.98;68.51;;
38366;Laerm;943;51.568;6.998;2023-12-29T02:13:02;53.46;45.41;71.77;;
38366;Laerm;943;51.568;6.998;2023-12-29T02:15:34;52.57;46.43;79.19;;
38366;Laerm;943;51.568;6.998;2023-12-29T02:18:15;50.22;46.13;65.55;;
38366;Laerm;943;51.568;6.998;2023-12-29T02:20:48;52.42;46.52;72.75;;
38366;Laerm;943;51.568;6.998;2023-12-29T02:23:18;50.12;45.57;64.60;;
38366;Laerm;943;51.568;6.998;2023-12-29T02:25:48;59.19;45.34;79.04;;
38366;Laerm;943;51.568;6.998;2023-12-29T02:28:27;53.87;41.48;75.95;;
38366;Laerm;943;51.568;6.998;2023-12-29T02:31:20;48.77;41.83;67.78;;
38366;Laerm;943;51.568;6.998;2023-12-29T02:33:55;45.36;42.74;59.99;;
38366;Laerm;943;51.568;6.998;2023-12-29T02:36:27;46.41;42.02;62.84;;
38366;Laerm;943;51.568;6.998;2023-12-29T02:38:57;51.65;42.07;70.98;;
38366;Laerm;943;51.568;6.998;2023-12-29T02:41:28;45.07;38.08;60.45;;
38366;Laerm;943;51.568;6.998;2023-12-29T02:44:01;52.59;41.02;73.94;;
38366;Laerm;943;51.568;6.998;2023-12-29T02:46:32;56.21;42.17;76.26;;
38366;Laerm;943;51.568;6.998;2023-12-29T02:49:03;44.91;40.88;60.00;;
38366;Laerm;943;51.568;6.998;2023-12-29T02:51:33;45.40;41.18;54.72;;
38366;Laerm;943;51.568;6.998;2023-12-29T02:54:07;45.15;40.95;61.48;;
38366;Laerm;943;51.568;6.998;2023-12-29T02:56:37;50.40;41.15;71.46;;
38366;Laerm;943;51.568;6.998;2023-12-29T02:59:08;50.28;41.81;67.54;;
38366;Laerm;943;51.568;6.998;2023-12-29T03:01:38;51.69;40.83;73.61;;
38366;Laerm;943;51.568;6.998;2023-12-29T03:04:09;52.57;39.59;76.11;;
38366;Laerm;943;51.568;6.998;2023-12-29T03:06:42;47.56;40.11;69.29;;
38366;Laerm;943;51.568;6.998;2023-12-29T03:09:13;46.11;41.52;65.73;;
38366;Laerm;943;51.568;6.998;2023-12-29T03:11:44;45.40;41.89;60.36;;
38366;Laerm;943;51.568;6.998;2023-12-29T03:14:16;43.97;41.30;54.69;;
38366;Laerm;943;51.568;6.998;2023-12-29T03:16:47;49.73;41.84;73.06;;
38366;Laerm;943;51.568;6.998;2023-12-29T03:19:18;45.93;39.97;62.18;;
38366;Laerm;943;51.568;6.998;2023-12-29T03:21:49;46.86;38.88;69.94;;
38366;Laerm;943;51.568;6.998;2023-12-29T03:24:20;50.51;38.61;74.20;;
38366;Laerm;943;51.568;6.998;2023-12-29T03:26:50;44.63;39.57;62.44;;
38366;Laerm;943;51.568;6.998;2023-12-29T03:29:20;52.97;39.51;74.69;;
38366;Laerm;943;51.568;6.998;2023-12-29T03:31:50;51.68;40.20;72.37;;
38366;Laerm;943;51.568;6.998;2023-12-29T03:34:21;50.69;39.19;69.66;;
38366;Laerm;943;51.568;6.998;2023-12-29T03:36:51;48.69;40.22;71.32;;
38366;Laerm;943;51.568;6.998;2023-12-29T03:39:21;57.08;41.85;76.40;;
38366;Laerm;943;51.568;6.998;2023-12-29T03:41:50;51.40;40.72;68.72;;
38366;Laerm;943;51.568;6.998;2023-12-29T03:44:20;52.00;40.19;79.15;;
38366;Laerm;943;51.568;6.998;2023-12-29T03:46:52;48.52;39.74;67.59;;
38366;Laerm;943;51.568;6.998;2023-12-29T03:49:22;46.75;40.92;64.32;;
38366;Laerm;943;51.568;6.998;2023-12-29T03:51:52;49.58;40.38;73.28;;
38366;Laerm;943;51.568;6.998;2023-12-29T03:54:23;55.79;39.75;74.48;;
38366;Laerm;943;51.568;6.998;2023-12-29T03:56:53;51.04;41.74;69.16;;
38366;Laerm;943;51.568;6.998;2023-12-29T03:59:23;51.74;40.84;77.50;;
38366;Laerm;943;51.568;6.998;2023-12-29T04:01:53;45.77;40.32;62.06;;
38366;Laerm;943;51.568;6.998;2023-12-29T04:04:24;55.73;39.33;78.23;;
38366;Laerm;943;51.568;6.998;2023-12-29T04:06:54;51.33;40.75;71.71;;
38366;Laerm;943;51.568;6.998;2023-12-29T04:09:25;44.62;41.24;61.76;;
38366;Laerm;943;51.568;6.998;2023-12-29T04:11:55;46.64;42.26;67.59;;
38366;Laerm;943;51.568;6.998;2023-12-29T04:14:26;52.74;41.64;72.14;;
38366;Laerm;943;51.568;6.998;2023-12-29T04:16:59;47.28;42.18;67.14;;
38366;Laerm;943;51.568;6.998;2023-12-29T04:19:33;47.62;41.76;65.42;;
38366;Laerm;943;51.568;6.998;2023-12-29T04:22:05;53.89;42.36;79.93;;
38366;Laerm;943;51.568;6.998;2023-12-29T04:24:40;58.79;40.83;81.11;;
38366;Laerm;943;51.568;6.998;2023-12-29T04:27:11;47.04;40.29;69.66;;
38366;Laerm;943;51.568;6.998;2023-12-29T04:29:41;50.96;41.63;69.87;;
38366;Laerm;943;51.568;6.998;2023-12-29T04:32:11;46.94;41.61;64.75;;
38366;Laerm;943;51.568;6.998;2023-12-29T04:34:43;45.26;41.78;61.15;;
38366;Laerm;943;51.568;6.998;2023-12-29T04:37:17;47.15;42.37;63.27;;
38366;Laerm;943;51.568;6.998;2023-12-29T04:39:53;47.92;42.53;68.01;;
38366;Laerm;943;51.568;6.998;2023-12-29T04:42:27;56.25;42.25;74.19;;
38366;Laerm;943;51.568;6.998;2023-12-29T04:45:02;52.75;41.82;72.31;;
38366;Laerm;943;51.568;6.998;2023-12-29T04:47:36;52.13;40.45;72.47;;
38366;Laerm;943;51.568;6.998;2023-12-29T04:50:11;50.66;41.13;70.03;;
38366;Laerm;943;51.568;6.998;2023-12-29T04:52:49;54.45;41.22;76.71;;
38366;Laerm;943;51.568;6.998;2023-12-29T04:55:28;53.10;42.69;72.96;;
38366;Laerm;943;51.568;6.998;2023-12-29T04:58:05;50.94;42.15;68.41;;
38366;Laerm;943;51.568;6.998;2023-12-29T05:00:40;52.40;42.52;71.66;;
38366;Laerm;943;51.568;6.998;2023-12-29T05:03:16;48.43;41.37;64.95;;
38366;Laerm;943;51.568;6.998;2023-12-29T05:05:50;49.68;40.99;66.33;;
38366;Laerm;943;51.568;6.998;2023-12-29T05:08:25;50.24;43.74;69.32;;
38366;Laerm;943;51.568;6.998;2023-12-29T05:10:58;65.63;43.01;87.99;;
38366;Laerm;943;51.568;6.998;2023-12-29T05:13:29;56.09;41.95;77.47;;
38366;Laerm;943;51.568;6.998;2023-12-29T05:15:59;55.62;43.17;73.44;;
38366;Laerm;943;51.568;6.998;2023-12-29T05:18:31;62.77;44.52;84.45;;
38366;Laerm;943;51.568;6.998;2023-12-29T05:21:01;53.80;42.64;81.08;;
38366;Laerm;943;51.568;6.998;2023-12-29T05:23:32;51.12;42.21;69.27;;
38366;Laerm;943;51.568;6.998;2023-12-29T05:26:02;58.55;42.73;81.93;;
38366;Laerm;943;51.568;6.998;2023-12-29T05:28:32;54.27;42.01;74.91;;
38366;Laerm;943;51.568;6.998;2023-12-29T05:31:06;62.21;43.97;80.74;;
38366;Laerm;943;51.568;6.998;2023-12-29T05:33:37;50.51;40.87;67.81;;
38366;Laerm;943;51.568;6.998;2023-12-29T05:36:11;44.70;40.74;56.50;;
38366;Laerm;943;51.568;6.998;2023-12-29T05:38:46;54.26;40.81;75.18;;
38366;Laerm;943;51.568;6.998;2023-12-29T05:41:18;53.73;41.95;72.33;;
38366;Laerm;943;51.568;6.998;2023-12-29T05:43:49;48.18;41.98;68.64;;
38366;Laerm;943;51.568;6.998;2023-12-29T05:46:19;48.13;43.11;63.66;;
38366;Laerm;943;51.568;6.998;2023-12-29T05:48:53;59.24;42.29;80.84;;
38366;Laerm;943;51.568;6.998;2023-12-29T05:51:24;53.67;42.58;71.52;;
38366;Laerm;943;51.568;6.998;2023-12-29T05:53:55;49.65;43.63;65.52;;
38366;Laerm;943;51.568;6.998;2023-12-29T05:56:26;56.03;42.35;83.30;;
38366;Laerm;943;51.568;6.998;2023-12-29T05:58:56;50.48;42.39;66.81;;
38366;Laerm;943;51.568;6.998;2023-12-29T06:01:27;46.82;42.73;62.99;;
38366;Laerm;943;51.568;6.998;2023-12-29T06:03:58;59.03;41.82;81.07;;
38366;Laerm;943;51.568;6.998;2023-12-29T06:06:28;45.15;42.59;51.06;;
38366;Laerm;943;51.568;6.998;2023-12-29T06:08:58;51.96;42.73;71.70;;
38366;Laerm;943;51.568;6.998;2023-12-29T06:11:28;50.55;42.26;73.87;;
38366;Laerm;943;51.568;6.998;2023-12-29T06:14:00;46.42;43.33;58.40;;
38366;Laerm;943;51.568;6.998;2023-12-29T06:16:34;47.66;42.22;64.23;;
38366;Laerm;943;51.568;6.998;2023-12-29T06:19:05;54.03;42.12;74.83;;
38366;Laerm;943;51.568;6.998;2023-12-29T06:21:44;52.78;41.57;77.21;;
38366;Laerm;943;51.568;6.998;2023-12-29T06:24:16;45.18;41.27;59.53;;
38366;Laerm;943;51.568;6.998;2023-12-29T06:26:47;48.69;43.25;68.72;;
38366;Laerm;943;51.568;6.998;2023-12-29T06:29:17;51.23;42.45;73.09;;
38366;Laerm;943;51.568;6.998;2023-12-29T06:31:48;60.77;42.41;85.85;;
38366;Laerm;943;51.568;6.998;2023-12-29T06:34:18;51.57;41.89;71.29;;
38366;Laerm;943;51.568;6.998;2023-12-29T06:36:48;52.94;43.65;72.27;;
38366;Laerm;943;51.568;6.998;2023-12-29T06:39:19;56.90;42.82;79.26;;
38366;Laerm;943;51.568;6.998;2023-12-29T06:41:49;55.40;42.23;76.47;;
38366;Laerm;943;51.568;6.998;2023-12-29T06:44:20;50.11;42.72;75.71;;
38366;Laerm;943;51.568;6.998;2023-12-29T06:46:50;52.98;41.85;70.28;;
38366;Laerm;943;51.568;6.998;2023-12-29T06:49:20;46.16;41.46;58.90;;
38366;Laerm;943;51.568;6.998;2023-12-29T06:51:51;52.15;43.63;71.32;;
38366;Laerm;943;51.568;6.998;2023-12-29T06:54:22;60.52;42.57;83.54;;
38366;Laerm;943;51.568;6.998;2023-12-29T06:56:52;55.56;42.25;81.14;;
38366;Laerm;943;51.568;6.998;2023-12-29T06:59:23;45.44;41.91;56.73;;
38366;Laerm;943;51.568;6.998;2023-12-29T07:01:56;44.93;41.89;58.33;;
38366;Laerm;943;51.568;6.998;2023-12-29T07:04:27;45.00;41.50;58.08;;
38366;Laerm;943;51.568;6.998;2023-12-29T07:07:01;50.07;41.09;71.55;;
38366;Laerm;943;51.568;6.998;2023-12-29T07:09:32;49.71;43.00;67.72;;
38366;Laerm;943;51.568;6.998;2023-12-29T07:12:03;50.03;43.04;69.16;;
38366;Laerm;943;51.568;6.998;2023-12-29T07:14:35;46.90;43.09;55.51;;
38366;Laerm;943;51.568;6.998;2023-12-29T07:17:05;50.17;43.04;68.11;;
38366;Laerm;943;51.568;6.998;2023-12-29T07:19:40;48.96;43.86;65.27;;
38366;Laerm;943;51.568;6.998;2023-12-29T07:22:11;47.66;43.78;68.96;;
38366;Laerm;943;51.568;6.998;2023-12-29T07:24:42;49.15;44.01;69.17;;
38366;Laerm;943;51.568;6.998;2023-12-29T07:27:12;48.68;43.52;66.17;;
38366;Laerm;943;51.568;6.998;2023-12-29T07:29:43;46.55;43.01;60.44;;
38366;Laerm;943;51.568;6.998;2023-12-29T07:32:13;48.34;43.64;67.35;;
38366;Laerm;943;51.568;6.998;2023-12-29T07:34:46;59.09;43.35;79.43;;
38366;Laerm;943;51.568;6.998;2023-12-29T07:37:17;52.28;44.55;70.30;;
38366;Laerm;943;51.568;6.998;2023-12-29T07:39:51;59.40;44.24;80.74;;
38366;Laerm;943;51.568;6.998;2023-12-29T07:42:22;48.70;43.99;66.71;;
38366;Laerm;943;51.568;6.998;2023-12-29T07:44:57;56.06;43.21;74.72;;
38366;Laerm;943;51.568;6.998;2023-12-29T07:47:27;47.98;43.01;64.65;;
38366;Laerm;943;51.568;6.998;2023-12-29T07:49:58;49.63;43.78;68.48;;
38366;Laerm;943;51.568;6.998;2023-12-29T07:52:31;47.68;43.50;64.13;;
38366;Laerm;943;51.568;6.998;2023-12-29T07:55:01;51.81;43.92;69.56;;
38366;Laerm;943;51.568;6.998;2023-12-29T07:57:31;51.15;44.26;69.48;;
38366;Laerm;943;51.568;6.998;2023-12-29T08:00:07;57.73;43.93;81.49;;
38366;Laerm;943;51.568;6.998;2023-12-29T08:02:40;49.96;43.49;71.81;;
38366;Laerm;943;51.568;6.998;2023-12-29T08:05:10;50.19;43.85;69.64;;
38366;Laerm;943;51.568;6.998;2023-12-29T08:07:42;47.78;42.54;65.27;;
38366;Laerm;943;51.568;6.998;2023-12-29T08:10:14;48.61;44.33;61.61;;
38366;Laerm;943;51.568;6.998;2023-12-29T08:12:49;53.77;44.46;75.68;;
38366;Laerm;943;51.568;6.998;2023-12-29T08:15:22;54.41;44.47;79.50;;
38366;Laerm;943;51.568;6.998;2023-12-29T08:17:55;48.01;43.68;61.57;;
38366;Laerm;943;51.568;6.998;2023-12-29T08:20:28;49.22;44.83;64.71;;
38366;Laerm;943;51.568;6.998;2023-12-29T08:23:03;49.74;43.85;65.36;;
38366;Laerm;943;51.568;6.998;2023-12-29T08:25:37;58.09;43.97;79.33;;
38366;Laerm;943;51.568;6.998;2023-12-29T08:28:07;51.67;44.65;70.32;;
38366;Laerm;943;51.568;6.998;2023-12-29T08:30:41;48.86;44.51;66.47;;
38366;Laerm;943;51.568;6.998;2023-12-29T08:33:14;48.54;44.67;58.94;;
38366;Laerm;943;51.568;6.998;2023-12-29T08:35:46;61.75;45.59;84.76;;
38366;Laerm;943;51.568;6.998;2023-12-29T08:38:17;54.78;45.21;78.19;;
38366;Laerm;943;51.568;6.998;2023-12-29T08:40:47;51.68;45.19;68.63;;
38366;Laerm;943;51.568;6.998;2023-12-29T08:43:22;49.94;45.73;68.73;;
38366;Laerm;943;51.568;6.998;2023-12-29T08:45:54;56.64;44.64;80.81;;
38366;Laerm;943;51.568;6.998;2023-12-29T08:48:26;49.25;45.13;63.34;;
38366;Laerm;943;51.568;6.998;2023-12-29T08:50:57;54.01;44.98;67.19;;
38366;Laerm;943;51.568;6.998;2023-12-29T08:53:27;51.56;44.38;68.14;;
38366;Laerm;943;51.568;6.998;2023-12-29T08:56:00;51.51;44.29;67.31;;
38366;Laerm;943;51.568;6.998;2023-12-29T08:58:34;53.50;44.90;72.40;;
38366;Laerm;943;51.568;6.998;2023-12-29T09:01:05;54.41;45.24;74.83;;
38366;Laerm;943;51.568;6.998;2023-12-29T09:03:35;52.23;44.57;74.22;;
38366;Laerm;943;51.568;6.998;2023-12-29T09:06:09;59.43;44.24;80.66;;
38366;Laerm;943;51.568;6.998;2023-12-29T09:08:40;50.98;44.68;69.12;;
38366;Laerm;943;51.568;6.998;2023-12-29T09:11:10;50.81;44.50;69.51;;
38366;Laerm;943;51.568;6.998;2023-12-29T09:13:42;53.37;45.03;75.78;;
38366;Laerm;943;51.568;6.998;2023-12-29T09:16:12;55.07;45.52;75.11;;
38366;Laerm;943;51.568;6.998;2023-12-29T09:18:43;48.22;44.66;59.81;;
38366;Laerm;943;51.568;6.998;2023-12-29T09:21:13;48.41;43.96;61.71;;
38366;Laerm;943;51.568;6.998;2023-12-29T09:23:44;50.35;45.27;68.38;;
38366;Laerm;943;51.568;6.998;2023-12-29T09:26:16;51.40;45.65;72.31;;
38366;Laerm;943;51.568;6.998;2023-12-29T09:28:48;57.41;44.83;83.33;;
38366;Laerm;943;51.568;6.998;2023-12-29T09:31:18;59.01;46.47;78.21;;
38366;Laerm;943;51.568;6.998;2023-12-29T09:33:50;50.38;46.49;64.69;;
38366;Laerm;943;51.568;6.998;2023-12-29T09:36:21;55.95;45.73;83.97;;
38366;Laerm;943;51.568;6.998;2023-12-29T09:38:52;65.40;45.70;86.89;;
38366;Laerm;943;51.568;6.998;2023-12-29T09:41:29;60.24;45.09;79.43;;
38366;Laerm;943;51.568;6.998;2023-12-29T09:44:08;51.38;44.85;68.31;;
38366;Laerm;943;51.568;6.998;2023-12-29T09:46:45;52.14;44.71;70.61;;
38366;Laerm;943;51.568;6.998;2023-12-29T09:49:21;58.01;46.49;77.88;;
38366;Laerm;943;51.568;6.998;2023-12-29T09:51:52;51.55;45.38;69.18;;
38366;Laerm;943;51.568;6.998;2023-12-29T09:54:25;49.22;44.94;65.01;;
38366;Laerm;943;51.568;6.998;2023-12-29T09:56:55;60.09;45.66;80.36;;
38366;Laerm;943;51.568;6.998;2023-12-29T09:59:28;56.70;45.82;75.47;;
38366;Laerm;943;51.568;6.998;2023-12-29T10:02:06;58.16;45.10;77.90;;
38366;Laerm;943;51.568;6.998;2023-12-29T10:04:42;51.96;45.30;71.34;;
38366;Laerm;943;51.568;6.998;2023-12-29T10:07:26;66.14;45.33;85.90;;
38366;Laerm;943;51.568;6.998;2023-12-29T10:10:00;53.92;45.54;76.25;;
38366;Laerm;943;51.568;6.998;2023-12-29T10:12:34;60.62;45.29;80.11;;
38366;Laerm;943;51.568;6.998;2023-12-29T10:15:34;58.80;46.67;81.42;;
38366;Laerm;943;51.568;6.998;2023-12-29T10:22:11;56.18;45.26;75.43;;
38366;Laerm;943;51.568;6.998;2023-12-29T10:24:50;52.11;45.60;70.16;;
38366;Laerm;943;51.568;6.998;2023-12-29T10:27:21;55.66;45.20;73.57;;
38366;Laerm;943;51.568;6.998;2023-12-29T10:29:54;58.67;45.69;79.09;;
38366;Laerm;943;51.568;6.998;2023-12-29T10:32:30;56.18;44.24;80.13;;
38366;Laerm;943;51.568;6.998;2023-12-29T10:35:12;47.02;43.87;50.41;;
38366;Laerm;943;51.568;6.998;2023-12-29T10:37:42;52.26;43.60;70.21;;
38366;Laerm;943;51.568;6.998;2023-12-29T10:40:22;49.69;43.33;66.01;;
38366;Laerm;943;51.568;6.998;2023-12-29T10:42:55;56.42;44.90;79.87;;
38366;Laerm;943;51.568;6.998;2023-12-29T10:45:26;55.68;45.65;72.15;;
38366;Laerm;943;51.568;6.998;2023-12-29T10:47:56;56.00;45.51;75.84;;
38366;Laerm;943;51.568;6.998;2023-12-29T10:50:29;49.71;45.81;63.46;;
38366;Laerm;943;51.568;6.998;2023-12-29T10:53:18;49.36;45.45;66.41;;
38366;Laerm;943;51.568;6.998;2023-12-29T10:55:50;56.74;45.59;78.21;;
38366;Laerm;943;51.568;6.998;2023-12-29T10:58:21;52.28;46.02;66.99;;
38366;Laerm;943;51.568;6.998;2023-12-29T11:00:53;54.04;45.21;73.29;;
38366;Laerm;943;51.568;6.998;2023-12-29T11:03:26;55.00;45.93;73.46;;
38366;Laerm;943;51.568;6.998;2023-12-29T11:06:02;49.30;45.17;61.53;;
38366;Laerm;943;51.568;6.998;2023-12-29T11:08:37;51.92;44.93;77.23;;
38366;Laerm;943;51.568;6.998;2023-12-29T11:11:11;52.23;44.78;69.40;;
38366;Laerm;943;51.568;6.998;2023-12-29T11:13:41;49.08;45.68;65.44;;
38366;Laerm;943;51.568;6.998;2023-12-29T11:16:14;49.72;44.94;65.49;;
38366;Laerm;943;51.568;6.998;2023-12-29T11:18:50;54.93;46.15;73.36;;
38366;Laerm;943;51.568;6.998;2023-12-29T11:21:26;56.42;45.77;74.63;;
38366;Laerm;943;51.568;6.998;2023-12-29T11:23:58;52.39;45.46;71.91;;
38366;Laerm;943;51.568;6.998;2023-12-29T11:26:31;54.76;44.64;74.97;;
38366;Laerm;943;51.568;6.998;2023-12-29T11:29:05;50.44;45.09;72.02;;
38366;Laerm;943;51.568;6.998;2023-12-29T11:31:36;52.60;43.91;72.76;;
38366;Laerm;943;51.568;6.998;2023-12-29T11:34:40;52.98;44.63;75.87;;
38366;Laerm;943;51.568;6.998;2023-12-29T11:37:57;51.63;44.59;69.50;;
38366;Laerm;943;51.568;6.998;2023-12-29T11:43:37;51.35;45.51;66.54;;
38366;Laerm;943;51.568;6.998;2023-12-29T11:46:33;51.57;45.73;65.78;;
38366;Laerm;943;51.568;6.998;2023-12-29T11:49:06;56.78;46.25;78.95;;
38366;Laerm;943;51.568;6.998;2023-12-29T11:51:50;62.26;46.38;82.33;;
38366;Laerm;943;51.568;6.998;2023-12-29T11:54:27;54.38;45.38;73.98;;
38366;Laerm;943;51.568;6.998;2023-12-29T11:56:57;55.86;45.30;76.50;;
38366;Laerm;943;51.568;6.998;2023-12-29T11:59:29;56.10;46.03;72.50;;
38366;Laerm;943;51.568;6.998;2023-12-29T12:02:05;57.67;46.09;78.18;;
38366;Laerm;943;51.568;6.998;2023-12-29T12:04:46;50.73;43.70;69.14;;
38366;Laerm;943;51.568;6.998;2023-12-29T12:12:58;56.01;44.56;77.51;;
38366;Laerm;943;51.568;6.998;2023-12-29T12:15:34;52.18;45.08;68.33;;
38366;Laerm;943;51.568;6.998;2023-12-29T12:18:11;59.58;45.05;82.27;;
38366;Laerm;943;51.568;6.998;2023-12-29T12:20:41;62.49;46.18;92.90;;
38366;Laerm;943;51.568;6.998;2023-12-29T12:23:22;58.66;45.13;80.72;;
38366;Laerm;943;51.568;6.998;2023-12-29T12:26:03;51.46;44.68;69.40;;
38366;Laerm;943;51.568;6.998;2023-12-29T12:28:37;49.69;44.96;63.97;;
38366;Laerm;943;51.568;6.998;2023-12-29T12:31:12;49.23;44.80;63.05;;
38366;Laerm;943;51.568;6.998;2023-12-29T12:33:56;56.91;45.23;75.12;;
38366;Laerm;943;51.568;6.998;2023-12-29T12:36:27;56.59;44.67;78.19;;
38366;Laerm;943;51.568;6.998;2023-12-29T12:39:00;51.64;46.01;68.84;;
38366;Laerm;943;51.568;6.998;2023-12-29T12:41:32;57.91;45.35;76.08;;
38366;Laerm;943;51.568;6.998;2023-12-29T12:44:14;59.78;45.25;78.88;;
38366;Laerm;943;51.568;6.998;2023-12-29T12:46:59;61.67;45.81;84.78;;
38366;Laerm;943;51.568;6.998;2023-12-29T12:49:31;51.12;44.50;70.46;;
38366;Laerm;943;51.568;6.998;2023-12-29T12:52:03;59.63;46.58;79.74;;
38366;Laerm;943;51.568;6.998;2023-12-29T12:54:34;53.04;45.35;67.89;;
38366;Laerm;943;51.568;6.998;2023-12-29T12:57:05;52.39;45.31;72.68;;
38366;Laerm;943;51.568;6.998;2023-12-29T12:59:37;52.65;46.95;69.69;;
38366;Laerm;943;51.568;6.998;2023-12-29T13:02:10;56.20;47.52;74.35;;
38366;Laerm;943;51.568;6.998;2023-12-29T13:04:43;65.07;56.00;80.10;;
38366;Laerm;943;51.568;6.998;2023-12-29T13:07:20;71.10;55.41;86.12;;
38366;Laerm;943;51.568;6.998;2023-12-29T13:09:54;65.86;55.52;80.23;;
38366;Laerm;943;51.568;6.998;2023-12-29T13:12:28;65.08;53.28;82.17;;
38366;Laerm;943;51.568;6.998;2023-12-29T13:15:10;62.32;51.05;79.69;;
38366;Laerm;943;51.568;6.998;2023-12-29T13:17:55;57.40;49.06;75.64;;
38366;Laerm;943;51.568;6.998;2023-12-29T13:20:27;56.47;50.86;71.51;;
38366;Laerm;943;51.568;6.998;2023-12-29T13:22:58;54.09;50.39;66.98;;
38366;Laerm;943;51.568;6.998;2023-12-29T13:25:33;65.74;51.79;83.38;;
38366;Laerm;943;51.568;6.998;2023-12-29T13:28:07;56.96;48.43;73.56;;
38366;Laerm;943;51.568;6.998;2023-12-29T13:30:41;54.95;49.07;75.77;;
38366;Laerm;943;51.568;6.998;2023-12-29T13:33:48;54.15;47.97;66.19;;
38366;Laerm;943;51.568;6.998;2023-12-29T13:36:35;56.17;47.15;73.85;;
38366;Laerm;943;51.568;6.998;2023-12-29T13:42:31;50.13;46.27;65.55;;
38366;Laerm;943;51.568;6.998;2023-12-29T13:45:09;48.47;45.78;52.91;;
38366;Laerm;943;51.568;6.998;2023-12-29T13:47:42;49.39;44.85;63.43;;
38366;Laerm;943;51.568;6.998;2023-12-29T13:50:17;49.94;44.73;71.21;;
38366;Laerm;943;51.568;6.998;2023-12-29T13:52:47;54.59;47.09;72.36;;
38366;Laerm;943;51.568;6.998;2023-12-29T13:55:25;69.72;53.80;91.99;;
38366;Laerm;943;51.568;6.998;2023-12-29T13:57:56;59.06;54.17;72.00;;
38366;Laerm;943;51.568;6.998;2023-12-29T14:00:32;59.37;54.71;71.23;;
38366;Laerm;943;51.568;6.998;2023-12-29T14:06:42;55.26;50.98;67.52;;
38366;Laerm;943;51.568;6.998;2023-12-29T14:09:21;53.54;47.40;69.67;;
38366;Laerm;943;51.568;6.998;2023-12-29T14:11:54;51.16;47.06;61.86;;
38366;Laerm;943;51.568;6.998;2023-12-29T14:14:27;52.50;47.02;64.21;;
38366;Laerm;943;51.568;6.998;2023-12-29T14:17:01;49.29;46.41;63.36;;
38366;Laerm;943;51.568;6.998;2023-12-29T14:19:41;53.07;47.08;66.34;;
38366;Laerm;943;51.568;6.998;2023-12-29T14:22:26;49.74;45.19;64.16;;
38366;Laerm;943;51.568;6.998;2023-12-29T14:25:12;49.93;45.99;68.79;;
38366;Laerm;943;51.568;6.998;2023-12-29T14:27:54;51.41;45.97;76.35;;
38366;Laerm;943;51.568;6.998;2023-12-29T14:30:26;53.81;45.95;74.61;;
38366;Laerm;943;51.568;6.998;2023-12-29T14:33:01;62.76;46.61;82.39;;
38366;Laerm;943;51.568;6.998;2023-12-29T14:35:31;53.61;45.46;74.96;;
38366;Laerm;943;51.568;6.998;2023-12-29T14:38:01;50.11;44.85;73.50;;
38366;Laerm;943;51.568;6.998;2023-12-29T14:40:35;61.28;45.52;80.79;;
38366;Laerm;943;51.568;6.998;2023-12-29T14:43:05;51.23;46.15;79.38;;
38366;Laerm;943;51.568;6.998;2023-12-29T14:45:37;60.13;46.83;85.17;;
38366;Laerm;943;51.568;6.998;2023-12-29T14:48:11;57.23;46.84;76.86;;
38366;Laerm;943;51.568;6.998;2023-12-29T14:50:47;49.74;46.18;62.62;;
38366;Laerm;943;51.568;6.998;2023-12-29T14:53:18;53.66;46.76;70.32;;
38366;Laerm;943;51.568;6.998;2023-12-29T14:55:50;55.58;45.32;74.30;;
38366;Laerm;943;51.568;6.998;2023-12-29T14:58:19;52.31;46.07;70.85;;
38366;Laerm;943;51.568;6.998;2023-12-29T15:00:50;57.82;45.89;79.91;;
38366;Laerm;943;51.568;6.998;2023-12-29T15:03:24;49.43;44.91;68.17;;